sensor_id;sensor_type;location;lat;lon;timestamp;P1;durP1;ratioP1;P2;durP2;ratioP2
60243;SDS011;46106;51.468;5.814;2022-07-05T00:00:49;17.75;;;7.68;;
60243;SDS011;46106;51.468;5.814;2022-07-05T00:03:15;13.38;;;8.48;;
60243;SDS011;46106;51.468;5.814;2022-07-05T00:05:40;12.15;;;8.38;;
60243;SDS011;46106;51.468;5.814;2022-07-05T00:08:06;20.13;;;8.38;;
60243;SDS011;46106;51.468;5.814;2022-07-05T00:10:33;12.45;;;8.20;;
60243;SDS011;46106;51.468;5.814;2022-07-05T00:13:00;10.77;;;7.53;;
60243;SDS011;46106;51.468;5.814;2022-07-05T00:18:47;12.38;;;7.55;;
60243;SDS011;46106;51.468;5.814;2022-07-05T00:21:13;9.85;;;7.13;;
60243;SDS011;46106;51.468;5.814;2022-07-05T00:23:38;10.40;;;7.70;;
60243;SDS011;46106;51.468;5.814;2022-07-05T00:26:04;14.05;;;7.88;;
60243;SDS011;46106;51.468;5.814;2022-07-05T00:28:30;13.95;;;9.07;;
60243;SDS011;46106;51.468;5.814;2022-07-05T00:30:55;12.90;;;8.63;;
60243;SDS011;46106;51.468;5.814;2022-07-05T00:33:21;12.95;;;8.48;;
60243;SDS011;46106;51.468;5.814;2022-07-05T00:35:46;13.02;;;8.48;;
60243;SDS011;46106;51.468;5.814;2022-07-05T00:38:12;19.13;;;8.50;;
60243;SDS011;46106;51.468;5.814;2022-07-05T00:40:37;12.25;;;8.60;;
60243;SDS011;46106;51.468;5.814;2022-07-05T00:43:03;13.93;;;8.82;;
60243;SDS011;46106;51.468;5.814;2022-07-05T00:45:28;13.32;;;7.93;;
60243;SDS011;46106;51.468;5.814;2022-07-05T00:47:54;15.52;;;7.93;;
60243;SDS011;46106;51.468;5.814;2022-07-05T00:50:19;12.10;;;8.30;;
60243;SDS011;46106;51.468;5.814;2022-07-05T00:52:45;12.63;;;8.48;;
60243;SDS011;46106;51.468;5.814;2022-07-05T00:55:10;13.35;;;8.27;;
60243;SDS011;46106;51.468;5.814;2022-07-05T00:57:36;16.08;;;8.80;;
60243;SDS011;46106;51.468;5.814;2022-07-05T01:00:02;20.85;;;8.93;;
60243;SDS011;46106;51.468;5.814;2022-07-05T01:02:29;16.05;;;8.88;;
60243;SDS011;46106;51.468;5.814;2022-07-05T01:04:55;14.68;;;8.82;;
60243;SDS011;46106;51.468;5.814;2022-07-05T01:07:22;13.18;;;8.07;;
60243;SDS011;46106;51.468;5.814;2022-07-05T01:09:49;12.48;;;8.38;;
60243;SDS011;46106;51.468;5.814;2022-07-05T01:12:14;16.23;;;8.98;;
60243;SDS011;46106;51.468;5.814;2022-07-05T01:14:41;12.35;;;9.18;;
60243;SDS011;46106;51.468;5.814;2022-07-05T01:17:07;15.07;;;9.52;;
60243;SDS011;46106;51.468;5.814;2022-07-05T01:19:33;21.00;;;10.00;;
60243;SDS011;46106;51.468;5.814;2022-07-05T01:22:00;14.70;;;7.90;;
60243;SDS011;46106;51.468;5.814;2022-07-05T01:24:28;11.98;;;8.68;;
60243;SDS011;46106;51.468;5.814;2022-07-05T01:26:55;13.73;;;9.50;;
60243;SDS011;46106;51.468;5.814;2022-07-05T01:29:20;13.85;;;10.00;;
60243;SDS011;46106;51.468;5.814;2022-07-05T01:31:46;15.55;;;9.88;;
60243;SDS011;46106;51.468;5.814;2022-07-05T01:34:11;13.90;;;9.93;;
60243;SDS011;46106;51.468;5.814;2022-07-05T01:36:37;14.65;;;9.80;;
60243;SDS011;46106;51.468;5.814;2022-07-05T01:39:04;12.60;;;9.55;;
60243;SDS011;46106;51.468;5.814;2022-07-05T01:41:31;16.55;;;9.73;;
60243;SDS011;46106;51.468;5.814;2022-07-05T01:43:57;16.75;;;9.30;;
60243;SDS011;46106;51.468;5.814;2022-07-05T01:46:23;16.35;;;10.23;;
60243;SDS011;46106;51.468;5.814;2022-07-05T01:48:51;21.50;;;9.77;;
60243;SDS011;46106;51.468;5.814;2022-07-05T01:51:24;17.13;;;10.45;;
60243;SDS011;46106;51.468;5.814;2022-07-05T01:53:54;16.30;;;10.40;;
60243;SDS011;46106;51.468;5.814;2022-07-05T01:56:20;21.98;;;9.93;;
60243;SDS011;46106;51.468;5.814;2022-07-05T01:58:45;15.73;;;10.32;;
60243;SDS011;46106;51.468;5.814;2022-07-05T02:01:11;25.40;;;11.85;;
60243;SDS011;46106;51.468;5.814;2022-07-05T02:03:38;21.50;;;10.63;;
60243;SDS011;46106;51.468;5.814;2022-07-05T02:06:04;16.75;;;10.93;;
60243;SDS011;46106;51.468;5.814;2022-07-05T02:08:31;17.42;;;10.95;;
60243;SDS011;46106;51.468;5.814;2022-07-05T02:10:57;13.90;;;10.68;;
60243;SDS011;46106;51.468;5.814;2022-07-05T02:13:23;18.55;;;11.50;;
60243;SDS011;46106;51.468;5.814;2022-07-05T02:15:48;18.42;;;11.00;;
60243;SDS011;46106;51.468;5.814;2022-07-05T02:18:14;17.60;;;11.10;;
60243;SDS011;46106;51.468;5.814;2022-07-05T02:20:40;23.40;;;10.98;;
60243;SDS011;46106;51.468;5.814;2022-07-05T02:23:06;18.20;;;11.52;;
60243;SDS011;46106;51.468;5.814;2022-07-05T02:25:32;18.98;;;11.90;;
60243;SDS011;46106;51.468;5.814;2022-07-05T02:28:00;23.67;;;12.73;;
60243;SDS011;46106;51.468;5.814;2022-07-05T02:30:26;19.75;;;11.35;;
60243;SDS011;46106;51.468;5.814;2022-07-05T02:32:51;21.83;;;11.90;;
60243;SDS011;46106;51.468;5.814;2022-07-05T02:35:17;16.60;;;11.60;;
60243;SDS011;46106;51.468;5.814;2022-07-05T02:37:42;21.02;;;12.30;;
60243;SDS011;46106;51.468;5.814;2022-07-05T02:40:09;19.20;;;11.68;;
60243;SDS011;46106;51.468;5.814;2022-07-05T02:42:36;18.08;;;11.55;;
60243;SDS011;46106;51.468;5.814;2022-07-05T02:45:02;21.52;;;11.05;;
60243;SDS011;46106;51.468;5.814;2022-07-05T02:47:32;15.63;;;10.73;;
60243;SDS011;46106;51.468;5.814;2022-07-05T02:49:58;19.27;;;11.73;;
60243;SDS011;46106;51.468;5.814;2022-07-05T02:52:27;17.65;;;11.52;;
60243;SDS011;46106;51.468;5.814;2022-07-05T02:54:53;21.90;;;13.52;;
60243;SDS011;46106;51.468;5.814;2022-07-05T02:57:18;20.10;;;12.75;;
60243;SDS011;46106;51.468;5.814;2022-07-05T02:59:44;19.55;;;12.18;;
60243;SDS011;46106;51.468;5.814;2022-07-05T03:02:09;23.75;;;12.32;;
60243;SDS011;46106;51.468;5.814;2022-07-05T03:04:35;20.38;;;12.43;;
60243;SDS011;46106;51.468;5.814;2022-07-05T03:07:00;18.90;;;10.90;;
60243;SDS011;46106;51.468;5.814;2022-07-05T03:09:26;22.02;;;10.60;;
60243;SDS011;46106;51.468;5.814;2022-07-05T03:11:52;23.58;;;11.65;;
60243;SDS011;46106;51.468;5.814;2022-07-05T03:14:17;19.30;;;12.57;;
60243;SDS011;46106;51.468;5.814;2022-07-05T03:16:43;17.35;;;11.20;;
60243;SDS011;46106;51.468;5.814;2022-07-05T03:19:09;17.17;;;11.25;;
60243;SDS011;46106;51.468;5.814;2022-07-05T03:21:35;21.30;;;11.68;;
60243;SDS011;46106;51.468;5.814;2022-07-05T03:24:00;19.67;;;11.90;;
60243;SDS011;46106;51.468;5.814;2022-07-05T03:26:26;23.42;;;12.10;;
60243;SDS011;46106;51.468;5.814;2022-07-05T03:28:51;17.50;;;11.18;;
60243;SDS011;46106;51.468;5.814;2022-07-05T03:31:17;16.67;;;11.18;;
60243;SDS011;46106;51.468;5.814;2022-07-05T03:33:42;21.25;;;10.98;;
60243;SDS011;46106;51.468;5.814;2022-07-05T03:36:08;17.33;;;11.77;;
60243;SDS011;46106;51.468;5.814;2022-07-05T03:38:33;22.38;;;13.50;;
60243;SDS011;46106;51.468;5.814;2022-07-05T03:40:59;20.48;;;12.73;;
60243;SDS011;46106;51.468;5.814;2022-07-05T03:43:25;23.58;;;12.27;;
60243;SDS011;46106;51.468;5.814;2022-07-05T03:45:51;19.23;;;11.93;;
60243;SDS011;46106;51.468;5.814;2022-07-05T03:48:16;19.08;;;12.20;;
60243;SDS011;46106;51.468;5.814;2022-07-05T03:50:41;21.60;;;11.75;;
60243;SDS011;46106;51.468;5.814;2022-07-05T03:53:07;16.83;;;10.93;;
60243;SDS011;46106;51.468;5.814;2022-07-05T03:55:32;19.00;;;11.18;;
60243;SDS011;46106;51.468;5.814;2022-07-05T03:57:58;16.95;;;9.77;;
60243;SDS011;46106;51.468;5.814;2022-07-05T04:00:23;17.83;;;10.30;;
60243;SDS011;46106;51.468;5.814;2022-07-05T04:02:49;17.83;;;10.75;;
60243;SDS011;46106;51.468;5.814;2022-07-05T04:05:14;19.67;;;11.38;;
60243;SDS011;46106;51.468;5.814;2022-07-05T04:07:53;20.15;;;11.48;;
60243;SDS011;46106;51.468;5.814;2022-07-05T04:12:48;23.23;;;12.40;;
60243;SDS011;46106;51.468;5.814;2022-07-05T04:15:14;21.70;;;12.90;;
60243;SDS011;46106;51.468;5.814;2022-07-05T04:17:47;19.02;;;10.20;;
60243;SDS011;46106;51.468;5.814;2022-07-05T04:20:12;19.13;;;10.30;;
60243;SDS011;46106;51.468;5.814;2022-07-05T04:22:38;24.20;;;12.38;;
60243;SDS011;46106;51.468;5.814;2022-07-05T04:25:03;25.92;;;13.80;;
60243;SDS011;46106;51.468;5.814;2022-07-05T04:27:48;28.02;;;13.90;;
60243;SDS011;46106;51.468;5.814;2022-07-05T04:30:15;26.38;;;13.32;;
60243;SDS011;46106;51.468;5.814;2022-07-05T04:32:42;28.25;;;13.65;;
60243;SDS011;46106;51.468;5.814;2022-07-05T04:35:08;28.52;;;14.18;;
60243;SDS011;46106;51.468;5.814;2022-07-05T04:37:35;29.58;;;15.52;;
60243;SDS011;46106;51.468;5.814;2022-07-05T04:40:02;23.95;;;14.95;;
60243;SDS011;46106;51.468;5.814;2022-07-05T04:42:29;33.15;;;15.82;;
60243;SDS011;46106;51.468;5.814;2022-07-05T04:44:54;33.05;;;17.40;;
60243;SDS011;46106;51.468;5.814;2022-07-05T04:47:20;35.92;;;18.10;;
60243;SDS011;46106;51.468;5.814;2022-07-05T04:49:45;30.45;;;18.15;;
60243;SDS011;46106;51.468;5.814;2022-07-05T04:52:11;43.50;;;18.88;;
60243;SDS011;46106;51.468;5.814;2022-07-05T04:54:37;35.05;;;18.63;;
60243;SDS011;46106;51.468;5.814;2022-07-05T04:57:02;37.22;;;19.05;;
60243;SDS011;46106;51.468;5.814;2022-07-05T04:59:28;40.42;;;20.08;;
60243;SDS011;46106;51.468;5.814;2022-07-05T05:01:53;41.67;;;21.75;;
60243;SDS011;46106;51.468;5.814;2022-07-05T05:04:20;35.20;;;19.77;;
60243;SDS011;46106;51.468;5.814;2022-07-05T05:06:45;38.95;;;20.33;;
60243;SDS011;46106;51.468;5.814;2022-07-05T05:09:11;40.72;;;21.25;;
60243;SDS011;46106;51.468;5.814;2022-07-05T05:11:36;31.77;;;19.55;;
60243;SDS011;46106;51.468;5.814;2022-07-05T05:14:02;36.63;;;20.20;;
60243;SDS011;46106;51.468;5.814;2022-07-05T05:16:27;32.85;;;19.25;;
60243;SDS011;46106;51.468;5.814;2022-07-05T05:18:53;38.42;;;20.17;;
60243;SDS011;46106;51.468;5.814;2022-07-05T05:21:19;30.58;;;18.73;;
60243;SDS011;46106;51.468;5.814;2022-07-05T05:23:44;33.58;;;18.50;;
60243;SDS011;46106;51.468;5.814;2022-07-05T05:26:10;34.95;;;17.88;;
60243;SDS011;46106;51.468;5.814;2022-07-05T05:28:35;34.30;;;17.73;;
60243;SDS011;46106;51.468;5.814;2022-07-05T05:31:00;35.28;;;16.23;;
60243;SDS011;46106;51.468;5.814;2022-07-05T05:33:26;32.17;;;18.38;;
60243;SDS011;46106;51.468;5.814;2022-07-05T05:35:52;27.73;;;16.92;;
60243;SDS011;46106;51.468;5.814;2022-07-05T05:38:17;33.60;;;17.85;;
60243;SDS011;46106;51.468;5.814;2022-07-05T05:40:43;41.35;;;18.00;;
60243;SDS011;46106;51.468;5.814;2022-07-05T05:43:09;28.05;;;17.67;;
60243;SDS011;46106;51.468;5.814;2022-07-05T05:45:35;37.35;;;18.08;;
60243;SDS011;46106;51.468;5.814;2022-07-05T05:48:01;35.75;;;18.25;;
60243;SDS011;46106;51.468;5.814;2022-07-05T05:50:30;27.77;;;16.92;;
60243;SDS011;46106;51.468;5.814;2022-07-05T05:52:57;29.40;;;17.67;;
60243;SDS011;46106;51.468;5.814;2022-07-05T05:55:24;28.65;;;16.85;;
60243;SDS011;46106;51.468;5.814;2022-07-05T05:57:51;45.92;;;17.95;;
60243;SDS011;46106;51.468;5.814;2022-07-05T06:00:17;26.45;;;16.67;;
60243;SDS011;46106;51.468;5.814;2022-07-05T06:02:44;31.65;;;17.55;;
60243;SDS011;46106;51.468;5.814;2022-07-05T06:05:11;31.35;;;16.88;;
60243;SDS011;46106;51.468;5.814;2022-07-05T06:07:53;31.10;;;16.50;;
60243;SDS011;46106;51.468;5.814;2022-07-05T06:10:30;27.05;;;15.77;;
60243;SDS011;46106;51.468;5.814;2022-07-05T06:12:58;27.52;;;15.32;;
60243;SDS011;46106;51.468;5.814;2022-07-05T06:15:25;22.70;;;14.38;;
60243;SDS011;46106;51.468;5.814;2022-07-05T06:17:51;27.67;;;15.32;;
60243;SDS011;46106;51.468;5.814;2022-07-05T06:20:18;32.58;;;16.00;;
60243;SDS011;46106;51.468;5.814;2022-07-05T06:22:48;31.45;;;16.05;;
60243;SDS011;46106;51.468;5.814;2022-07-05T06:25:14;25.42;;;15.18;;
60243;SDS011;46106;51.468;5.814;2022-07-05T06:27:41;20.30;;;12.73;;
60243;SDS011;46106;51.468;5.814;2022-07-05T06:30:12;20.67;;;11.98;;
60243;SDS011;46106;51.468;5.814;2022-07-05T06:32:38;15.35;;;10.07;;
60243;SDS011;46106;51.468;5.814;2022-07-05T06:35:04;20.60;;;12.32;;
60243;SDS011;46106;51.468;5.814;2022-07-05T06:40:31;15.77;;;9.43;;
60243;SDS011;46106;51.468;5.814;2022-07-05T06:45:27;15.23;;;8.05;;
60243;SDS011;46106;51.468;5.814;2022-07-05T06:50:21;16.38;;;8.32;;
60243;SDS011;46106;51.468;5.814;2022-07-05T06:52:47;13.65;;;6.68;;
60243;SDS011;46106;51.468;5.814;2022-07-05T06:55:12;13.35;;;6.05;;
60243;SDS011;46106;51.468;5.814;2022-07-05T06:57:38;13.52;;;7.32;;
60243;SDS011;46106;51.468;5.814;2022-07-05T07:00:04;11.80;;;6.75;;
60243;SDS011;46106;51.468;5.814;2022-07-05T07:02:31;8.50;;;5.10;;
60243;SDS011;46106;51.468;5.814;2022-07-05T07:04:56;9.18;;;6.00;;
60243;SDS011;46106;51.468;5.814;2022-07-05T07:07:22;13.93;;;5.65;;
60243;SDS011;46106;51.468;5.814;2022-07-05T07:10:06;13.52;;;6.38;;
60243;SDS011;46106;51.468;5.814;2022-07-05T07:12:31;13.82;;;6.32;;
60243;SDS011;46106;51.468;5.814;2022-07-05T07:14:57;10.52;;;5.78;;
60243;SDS011;46106;51.468;5.814;2022-07-05T07:17:23;11.15;;;5.53;;
60243;SDS011;46106;51.468;5.814;2022-07-05T07:19:49;9.00;;;5.07;;
60243;SDS011;46106;51.468;5.814;2022-07-05T07:22:15;18.45;;;5.43;;
60243;SDS011;46106;51.468;5.814;2022-07-05T07:24:40;11.88;;;4.70;;
60243;SDS011;46106;51.468;5.814;2022-07-05T07:27:05;9.10;;;5.60;;
60243;SDS011;46106;51.468;5.814;2022-07-05T07:29:36;9.32;;;5.65;;
60243;SDS011;46106;51.468;5.814;2022-07-05T07:32:04;14.53;;;6.83;;
60243;SDS011;46106;51.468;5.814;2022-07-05T07:34:31;11.75;;;8.00;;
60243;SDS011;46106;51.468;5.814;2022-07-05T07:36:57;12.75;;;6.47;;
60243;SDS011;46106;51.468;5.814;2022-07-05T07:39:23;13.38;;;6.00;;
60243;SDS011;46106;51.468;5.814;2022-07-05T07:41:49;11.75;;;6.85;;
60243;SDS011;46106;51.468;5.814;2022-07-05T07:44:15;15.63;;;6.32;;
60243;SDS011;46106;51.468;5.814;2022-07-05T07:46:41;11.18;;;5.55;;
60243;SDS011;46106;51.468;5.814;2022-07-05T07:49:06;12.27;;;5.88;;
60243;SDS011;46106;51.468;5.814;2022-07-05T07:51:36;9.32;;;6.53;;
60243;SDS011;46106;51.468;5.814;2022-07-05T07:54:02;17.63;;;6.18;;
60243;SDS011;46106;51.468;5.814;2022-07-05T07:56:28;10.68;;;5.50;;
60243;SDS011;46106;51.468;5.814;2022-07-05T07:58:53;13.15;;;4.93;;
60243;SDS011;46106;51.468;5.814;2022-07-05T08:01:19;9.35;;;5.10;;
60243;SDS011;46106;51.468;5.814;2022-07-05T08:03:45;10.93;;;6.07;;
60243;SDS011;46106;51.468;5.814;2022-07-05T08:06:10;10.10;;;5.28;;
60243;SDS011;46106;51.468;5.814;2022-07-05T08:08:38;9.25;;;4.57;;
60243;SDS011;46106;51.468;5.814;2022-07-05T08:11:04;7.63;;;4.68;;
60243;SDS011;46106;51.468;5.814;2022-07-05T08:13:31;8.27;;;4.32;;
60243;SDS011;46106;51.468;5.814;2022-07-05T08:15:57;10.43;;;5.03;;
60243;SDS011;46106;51.468;5.814;2022-07-05T08:18:23;7.38;;;4.50;;
60243;SDS011;46106;51.468;5.814;2022-07-05T08:21:12;8.85;;;4.30;;
60243;SDS011;46106;51.468;5.814;2022-07-05T08:24:00;6.85;;;3.53;;
60243;SDS011;46106;51.468;5.814;2022-07-05T08:26:28;8.00;;;3.53;;
60243;SDS011;46106;51.468;5.814;2022-07-05T08:28:55;11.05;;;3.45;;
60243;SDS011;46106;51.468;5.814;2022-07-05T08:31:23;9.18;;;3.60;;
60243;SDS011;46106;51.468;5.814;2022-07-05T08:33:50;10.10;;;4.18;;
60243;SDS011;46106;51.468;5.814;2022-07-05T08:36:16;9.38;;;3.30;;
60243;SDS011;46106;51.468;5.814;2022-07-05T08:38:41;8.73;;;3.60;;
60243;SDS011;46106;51.468;5.814;2022-07-05T08:41:07;9.40;;;3.50;;
60243;SDS011;46106;51.468;5.814;2022-07-05T08:43:35;5.60;;;3.55;;
60243;SDS011;46106;51.468;5.814;2022-07-05T08:46:04;11.35;;;2.97;;
60243;SDS011;46106;51.468;5.814;2022-07-05T08:48:33;8.98;;;3.83;;
60243;SDS011;46106;51.468;5.814;2022-07-05T08:51:08;9.02;;;3.90;;
60243;SDS011;46106;51.468;5.814;2022-07-05T08:53:38;13.05;;;3.35;;
60243;SDS011;46106;51.468;5.814;2022-07-05T08:56:05;13.82;;;3.30;;
60243;SDS011;46106;51.468;5.814;2022-07-05T08:58:32;17.45;;;3.63;;
60243;SDS011;46106;51.468;5.814;2022-07-05T09:00:58;23.13;;;3.40;;
60243;SDS011;46106;51.468;5.814;2022-07-05T09:03:25;21.30;;;4.45;;
60243;SDS011;46106;51.468;5.814;2022-07-05T09:06:03;18.13;;;4.13;;
60243;SDS011;46106;51.468;5.814;2022-07-05T09:08:33;24.17;;;5.32;;
60243;SDS011;46106;51.468;5.814;2022-07-05T09:11:04;22.13;;;4.17;;
60243;SDS011;46106;51.468;5.814;2022-07-05T09:13:34;18.95;;;3.95;;
60243;SDS011;46106;51.468;5.814;2022-07-05T09:16:04;14.68;;;3.58;;
60243;SDS011;46106;51.468;5.814;2022-07-05T09:18:47;14.02;;;4.05;;
60243;SDS011;46106;51.468;5.814;2022-07-05T09:21:23;15.60;;;3.92;;
60243;SDS011;46106;51.468;5.814;2022-07-05T09:23:54;17.10;;;4.15;;
60243;SDS011;46106;51.468;5.814;2022-07-05T09:26:34;16.48;;;3.92;;
60243;SDS011;46106;51.468;5.814;2022-07-05T09:29:00;9.90;;;3.47;;
60243;SDS011;46106;51.468;5.814;2022-07-05T09:31:27;14.70;;;3.20;;
60243;SDS011;46106;51.468;5.814;2022-07-05T09:34:31;8.45;;;2.30;;
60243;SDS011;46106;51.468;5.814;2022-07-05T09:36:50;11.50;;;3.25;;
60243;SDS011;46106;51.468;5.814;2022-07-05T09:39:17;9.07;;;2.25;;
60243;SDS011;46106;51.468;5.814;2022-07-05T09:41:44;10.68;;;2.40;;
60243;SDS011;46106;51.468;5.814;2022-07-05T09:44:09;9.88;;;2.10;;
60243;SDS011;46106;51.468;5.814;2022-07-05T09:46:34;4.65;;;1.90;;
60243;SDS011;46106;51.468;5.814;2022-07-05T09:49:00;12.65;;;2.55;;
60243;SDS011;46106;51.468;5.814;2022-07-05T09:51:25;11.25;;;3.10;;
60243;SDS011;46106;51.468;5.814;2022-07-05T09:53:52;11.35;;;2.45;;
60243;SDS011;46106;51.468;5.814;2022-07-05T09:56:22;5.68;;;2.17;;
60243;SDS011;46106;51.468;5.814;2022-07-05T09:58:51;9.88;;;1.90;;
60243;SDS011;46106;51.468;5.814;2022-07-05T10:01:29;3.38;;;1.42;;
60243;SDS011;46106;51.468;5.814;2022-07-05T10:03:57;7.68;;;1.60;;
60243;SDS011;46106;51.468;5.814;2022-07-05T10:06:26;3.38;;;2.00;;
60243;SDS011;46106;51.468;5.814;2022-07-05T10:08:54;4.35;;;1.60;;
60243;SDS011;46106;51.468;5.814;2022-07-05T10:11:21;5.43;;;2.20;;
60243;SDS011;46106;51.468;5.814;2022-07-05T10:13:53;7.05;;;1.70;;
60243;SDS011;46106;51.468;5.814;2022-07-05T10:16:20;4.80;;;1.40;;
60243;SDS011;46106;51.468;5.814;2022-07-05T10:18:47;4.75;;;1.65;;
60243;SDS011;46106;51.468;5.814;2022-07-05T10:21:17;4.53;;;1.42;;
60243;SDS011;46106;51.468;5.814;2022-07-05T10:23:50;5.60;;;1.80;;
60243;SDS011;46106;51.468;5.814;2022-07-05T10:26:19;4.10;;;1.60;;
60243;SDS011;46106;51.468;5.814;2022-07-05T10:28:47;4.72;;;1.63;;
60243;SDS011;46106;51.468;5.814;2022-07-05T10:31:16;6.18;;;1.60;;
60243;SDS011;46106;51.468;5.814;2022-07-05T10:33:42;7.50;;;1.70;;
60243;SDS011;46106;51.468;5.814;2022-07-05T10:36:12;5.10;;;1.50;;
60243;SDS011;46106;51.468;5.814;2022-07-05T10:38:44;10.10;;;1.80;;
60243;SDS011;46106;51.468;5.814;2022-07-05T10:41:13;5.70;;;1.92;;
60243;SDS011;46106;51.468;5.814;2022-07-05T10:43:57;6.32;;;1.65;;
60243;SDS011;46106;51.468;5.814;2022-07-05T10:46:33;8.60;;;1.60;;
60243;SDS011;46106;51.468;5.814;2022-07-05T10:49:15;3.72;;;1.55;;
60243;SDS011;46106;51.468;5.814;2022-07-05T10:51:44;7.80;;;1.90;;
60243;SDS011;46106;51.468;5.814;2022-07-05T10:54:10;7.07;;;1.70;;
60243;SDS011;46106;51.468;5.814;2022-07-05T10:56:36;6.50;;;1.85;;
60243;SDS011;46106;51.468;5.814;2022-07-05T10:59:07;6.15;;;1.38;;
60243;SDS011;46106;51.468;5.814;2022-07-05T11:01:35;4.28;;;1.70;;
60243;SDS011;46106;51.468;5.814;2022-07-05T11:06:28;5.38;;;1.50;;
60243;SDS011;46106;51.468;5.814;2022-07-05T11:11:36;10.38;;;1.52;;
60243;SDS011;46106;51.468;5.814;2022-07-05T11:14:03;4.10;;;1.88;;
60243;SDS011;46106;51.468;5.814;2022-07-05T11:16:32;4.65;;;1.45;;
60243;SDS011;46106;51.468;5.814;2022-07-05T11:19:04;5.00;;;1.60;;
60243;SDS011;46106;51.468;5.814;2022-07-05T11:21:31;5.43;;;1.30;;
60243;SDS011;46106;51.468;5.814;2022-07-05T11:24:40;5.43;;;1.48;;
60243;SDS011;46106;51.468;5.814;2022-07-05T11:32:10;4.90;;;1.77;;
60243;SDS011;46106;51.468;5.814;2022-07-05T11:34:38;8.02;;;1.90;;
60243;SDS011;46106;51.468;5.814;2022-07-05T11:39:38;5.03;;;2.00;;
60243;SDS011;46106;51.468;5.814;2022-07-05T11:42:04;4.25;;;1.67;;
60243;SDS011;46106;51.468;5.814;2022-07-05T11:44:33;12.05;;;3.08;;
60243;SDS011;46106;51.468;5.814;2022-07-05T11:46:59;7.63;;;2.83;;
60243;SDS011;46106;51.468;5.814;2022-07-05T11:49:26;4.80;;;2.75;;
60243;SDS011;46106;51.468;5.814;2022-07-05T11:51:58;13.00;;;3.40;;
60243;SDS011;46106;51.468;5.814;2022-07-05T11:54:26;7.65;;;2.92;;
60243;SDS011;46106;51.468;5.814;2022-07-05T11:56:53;8.75;;;3.28;;
60243;SDS011;46106;51.468;5.814;2022-07-05T11:59:19;10.77;;;3.40;;
60243;SDS011;46106;51.468;5.814;2022-07-05T12:01:46;5.93;;;2.78;;
60243;SDS011;46106;51.468;5.814;2022-07-05T12:04:12;7.90;;;3.67;;
60243;SDS011;46106;51.468;5.814;2022-07-05T12:06:45;6.28;;;2.95;;
60243;SDS011;46106;51.468;5.814;2022-07-05T12:09:13;11.50;;;3.05;;
60243;SDS011;46106;51.468;5.814;2022-07-05T12:11:38;6.53;;;3.20;;
60243;SDS011;46106;51.468;5.814;2022-07-05T12:14:22;8.68;;;2.92;;
60243;SDS011;46106;51.468;5.814;2022-07-05T12:17:10;7.50;;;3.35;;
60243;SDS011;46106;51.468;5.814;2022-07-05T12:19:39;8.98;;;3.50;;
60243;SDS011;46106;51.468;5.814;2022-07-05T12:22:04;9.27;;;3.45;;
60243;SDS011;46106;51.468;5.814;2022-07-05T12:24:29;6.85;;;3.72;;
60243;SDS011;46106;51.468;5.814;2022-07-05T12:26:55;8.07;;;3.53;;
60243;SDS011;46106;51.468;5.814;2022-07-05T12:29:21;10.85;;;2.80;;
60243;SDS011;46106;51.468;5.814;2022-07-05T12:32:03;4.90;;;2.50;;
60243;SDS011;46106;51.468;5.814;2022-07-05T12:34:33;7.18;;;2.50;;
60243;SDS011;46106;51.468;5.814;2022-07-05T12:36:59;11.10;;;2.30;;
60243;SDS011;46106;51.468;5.814;2022-07-05T12:39:25;7.15;;;1.77;;
60243;SDS011;46106;51.468;5.814;2022-07-05T12:41:50;6.03;;;2.42;;
60243;SDS011;46106;51.468;5.814;2022-07-05T12:44:19;5.85;;;2.17;;
60243;SDS011;46106;51.468;5.814;2022-07-05T12:46:45;4.22;;;2.55;;
60243;SDS011;46106;51.468;5.814;2022-07-05T12:49:11;6.80;;;2.10;;
60243;SDS011;46106;51.468;5.814;2022-07-05T12:51:38;5.72;;;2.13;;
60243;SDS011;46106;51.468;5.814;2022-07-05T12:54:09;6.68;;;2.08;;
60243;SDS011;46106;51.468;5.814;2022-07-05T12:57:05;4.75;;;1.92;;
60243;SDS011;46106;51.468;5.814;2022-07-05T13:05:19;4.97;;;1.88;;
60243;SDS011;46106;51.468;5.814;2022-07-05T13:07:46;4.35;;;1.70;;
60243;SDS011;46106;51.468;5.814;2022-07-05T13:10:18;5.07;;;1.70;;
60243;SDS011;46106;51.468;5.814;2022-07-05T13:12:53;4.32;;;2.10;;
60243;SDS011;46106;51.468;5.814;2022-07-05T13:15:18;8.10;;;2.83;;
60243;SDS011;46106;51.468;5.814;2022-07-05T13:17:44;6.63;;;2.42;;
60243;SDS011;46106;51.468;5.814;2022-07-05T13:20:10;8.35;;;2.67;;
60243;SDS011;46106;51.468;5.814;2022-07-05T13:22:37;6.78;;;2.75;;
60243;SDS011;46106;51.468;5.814;2022-07-05T13:25:03;11.05;;;2.25;;
60243;SDS011;46106;51.468;5.814;2022-07-05T13:27:29;4.38;;;2.35;;
60243;SDS011;46106;51.468;5.814;2022-07-05T13:29:55;6.10;;;2.60;;
60243;SDS011;46106;51.468;5.814;2022-07-05T13:32:20;5.28;;;2.00;;
60243;SDS011;46106;51.468;5.814;2022-07-05T13:34:47;2.92;;;1.73;;
60243;SDS011;46106;51.468;5.814;2022-07-05T13:37:14;4.47;;;2.08;;
60243;SDS011;46106;51.468;5.814;2022-07-05T13:39:39;6.28;;;1.70;;
60243;SDS011;46106;51.468;5.814;2022-07-05T13:42:05;2.53;;;1.20;;
60243;SDS011;46106;51.468;5.814;2022-07-05T13:44:31;6.35;;;1.40;;
60243;SDS011;46106;51.468;5.814;2022-07-05T13:46:57;3.47;;;1.40;;
60243;SDS011;46106;51.468;5.814;2022-07-05T13:49:23;3.97;;;1.00;;
60243;SDS011;46106;51.468;5.814;2022-07-05T13:51:48;9.18;;;1.13;;
60243;SDS011;46106;51.468;5.814;2022-07-05T13:54:14;3.42;;;1.13;;
60243;SDS011;46106;51.468;5.814;2022-07-05T13:56:40;3.47;;;1.25;;
60243;SDS011;46106;51.468;5.814;2022-07-05T13:59:05;4.30;;;1.38;;
60243;SDS011;46106;51.468;5.814;2022-07-05T14:01:31;3.33;;;1.00;;
60243;SDS011;46106;51.468;5.814;2022-07-05T14:03:57;2.40;;;1.00;;
60243;SDS011;46106;51.468;5.814;2022-07-05T14:06:24;2.47;;;1.20;;
60243;SDS011;46106;51.468;5.814;2022-07-05T14:08:50;4.38;;;1.42;;
60243;SDS011;46106;51.468;5.814;2022-07-05T14:11:16;3.75;;;1.30;;
60243;SDS011;46106;51.468;5.814;2022-07-05T14:13:42;4.35;;;1.20;;
60243;SDS011;46106;51.468;5.814;2022-07-05T14:16:08;3.63;;;1.17;;
60243;SDS011;46106;51.468;5.814;2022-07-05T14:18:33;4.82;;;1.27;;
60243;SDS011;46106;51.468;5.814;2022-07-05T14:20:59;6.97;;;1.40;;
60243;SDS011;46106;51.468;5.814;2022-07-05T14:23:25;6.68;;;1.13;;
60243;SDS011;46106;51.468;5.814;2022-07-05T14:25:50;4.50;;;1.05;;
60243;SDS011;46106;51.468;5.814;2022-07-05T14:28:16;7.55;;;1.55;;
60243;SDS011;46106;51.468;5.814;2022-07-05T14:30:42;5.40;;;1.13;;
60243;SDS011;46106;51.468;5.814;2022-07-05T14:33:10;5.65;;;1.00;;
60243;SDS011;46106;51.468;5.814;2022-07-05T14:35:37;3.33;;;1.20;;
60243;SDS011;46106;51.468;5.814;2022-07-05T14:38:03;8.82;;;1.50;;
60243;SDS011;46106;51.468;5.814;2022-07-05T14:40:29;6.07;;;1.38;;
60243;SDS011;46106;51.468;5.814;2022-07-05T14:42:56;7.97;;;1.15;;
60243;SDS011;46106;51.468;5.814;2022-07-05T14:45:26;6.47;;;1.35;;
60243;SDS011;46106;51.468;5.814;2022-07-05T14:47:52;4.65;;;1.52;;
60243;SDS011;46106;51.468;5.814;2022-07-05T14:50:18;5.90;;;1.50;;
60243;SDS011;46106;51.468;5.814;2022-07-05T14:52:45;3.13;;;1.23;;
60243;SDS011;46106;51.468;5.814;2022-07-05T14:55:11;5.43;;;1.45;;
60243;SDS011;46106;51.468;5.814;2022-07-05T14:57:37;5.22;;;1.30;;
60243;SDS011;46106;51.468;5.814;2022-07-05T15:00:04;8.40;;;1.23;;
60243;SDS011;46106;51.468;5.814;2022-07-05T15:02:31;4.43;;;1.13;;
60243;SDS011;46106;51.468;5.814;2022-07-05T15:04:56;5.50;;;1.27;;
60243;SDS011;46106;51.468;5.814;2022-07-05T15:07:22;3.30;;;1.33;;
60243;SDS011;46106;51.468;5.814;2022-07-05T15:09:47;3.40;;;1.20;;